FABL

Bram Fischer International Airport

Bloemfontain, South Africa
METAR FABL 231400Z 36012KT 9999 SCT030 27/13 Q1012 NOSIG
Observed Flight Rules
Feb-23 @ 14:00 UTC (38 minutes ago) Visual Flight Rules
Wind Visibility Clouds
360° at 12 knots 10,000+ meters
  • Scattered at 3,000' AGL
Temperatures Readings
Current 27°C / 81°F
Dewpoint 13°C / 55°F
Humidity 42%
Altimeter 29.88" Hg
Pressure 1012 hPa
Elevation 1348
METAR FABL 231400Z 36012KT 9999 SCT030 27/13 Q1012 NOSIG
Observed Flight Rules
Feb-23 @ 14:00 UTC
(38 minutes ago)
VFR
Wind Visibility
360° at 12 knots 10,000+ meters
Clouds
  • Scattered at 3,000' AGL
Temperature Dewpoint
27°C / 81°F 13°C / 55°F
Humidity Altimeter Pressure
42% 29.88" Hg 1012 hPa